Lair, Kentucky
Current Conditions -  °F | °C
As of 6:15 PM on Thursday 27 Nov 2014 (Local Time) from KIOB Reporting Station
Overcast Overcast  
Wind Chill: 25°   Ceiling: 4000
Heat Index: 32°   Visibility: 10mi
Dew Point: 25°   Wind: 8mph
Humidity: 75%   Direction: 310°NW
Pressure: 30.36"   Gusts: 16mph
Location:  38.4145°N, 84.2859°W
Report Text: KIOB 272315Z AUTO 31007G14KT 10SM BKN040 OVC048 00/M04 A3036 RMK AO2
Loading
Personal Weather Stations






























Interactive Weather Map New forecast layout! Learn more

10-Day Weather Forecast

Advertisements
Track Severe Weather on mobile